Time;durP1;ratioP1;P1;durP2;ratioP2;P2;SDS_P1;SDS_P2;PMS_P1;PMS_P2;Temp;Humidity;BMP_temperature;BMP_pressure;BME280_temperature;BME280_humidity;BME280_pressure;Samples;Min_cycle;Max_cycle;Signal;HPM_P1;HPM_P2
2021/10/26 00:00:55;;;;;;;14.07;9.55;;;205.70;2048.00;;;;;;4808217;29;20027;-58
2021/10/26 00:03:21;;;;;;;16.50;8.65;;;205.50;2073.60;;;;;;4808380;29;20118;-69
2021/10/26 00:05:47;;;;;;;15.48;9.30;;;205.50;2073.60;;;;;;4808388;29;20097;-59
2021/10/26 00:08:13;;;;;;;20.02;9.18;;;205.60;2073.60;;;;;;4808835;29;20375;-58
2021/10/26 00:10:39;;;;;;;13.95;9.18;;;205.50;2073.60;;;;;;4808046;29;20027;-58
2021/10/26 00:13:04;;;;;;;16.15;9.15;;;205.50;2073.60;;;;;;4808414;29;20031;-59
2021/10/26 00:15:30;;;;;;;15.52;8.80;;;205.50;2073.60;;;;;;4808073;29;20031;-68
2021/10/26 00:17:56;;;;;;;15.52;9.15;;;205.50;2073.60;;;;;;4808096;29;20051;-65
2021/10/26 00:20:22;;;;;;;11.65;8.25;;;205.50;2099.20;;;;;;4791545;29;20073;-58
2021/10/26 00:22:48;;;;;;;19.27;9.10;;;205.40;2099.20;;;;;;4808182;29;20035;-63
2021/10/26 00:25:14;;;;;;;16.50;9.02;;;205.40;2099.20;;;;;;4807946;29;20492;-59
2021/10/26 00:27:39;;;;;;;13.20;8.60;;;205.50;2099.20;;;;;;4808055;29;20031;-69
2021/10/26 00:30:06;;;;;;;14.57;9.93;;;205.40;2099.20;;;;;;4806963;29;20027;-68
2021/10/26 00:32:32;;;;;;;13.95;8.30;;;205.40;2099.20;;;;;;4791368;29;20027;-68
2021/10/26 00:34:58;;;;;;;14.10;8.43;;;205.40;2099.20;;;;;;4807815;29;20031;-58
2021/10/26 00:37:24;;;;;;;16.38;9.10;;;205.30;2099.20;;;;;;4807659;29;20159;-68
2021/10/26 00:39:50;;;;;;;13.60;9.00;;;205.30;2099.20;;;;;;4807666;29;20050;-68
2021/10/26 00:42:16;;;;;;;13.07;8.60;;;205.30;2124.80;;;;;;4807459;29;20027;-59
2021/10/26 00:44:42;;;;;;;14.68;8.60;;;205.30;2124.80;;;;;;4807894;29;20041;-68
2021/10/26 00:47:08;;;;;;;14.48;8.77;;;205.30;2124.80;;;;;;4807516;29;20027;-68
2021/10/26 00:49:34;;;;;;;13.70;8.02;;;205.30;2099.20;;;;;;4807565;29;20110;-68
2021/10/26 00:52:01;;;;;;;16.58;7.95;;;205.30;2099.20;;;;;;4807222;29;20047;-69
2021/10/26 00:54:26;;;;;;;16.80;8.50;;;205.30;2124.80;;;;;;4808001;29;20035;-64
2021/10/26 00:56:54;;;;;;;16.13;8.40;;;205.30;2124.80;;;;;;4807425;29;20027;-69
2021/10/26 00:59:21;;;;;;;13.43;8.40;;;205.30;2124.80;;;;;;4807310;29;20035;-58
2021/10/26 01:01:47;;;;;;;15.10;8.20;;;205.30;2124.80;;;;;;4807212;29;20031;-59
2021/10/26 01:04:13;;;;;;;12.00;8.10;;;205.30;2124.80;;;;;;4807162;29;20410;-58
2021/10/26 01:06:39;;;;;;;15.68;9.18;;;205.30;2124.80;;;;;;4807219;29;20041;-68
2021/10/26 01:09:05;;;;;;;14.90;7.78;;;205.30;2124.80;;;;;;4807177;29;20071;-58
2021/10/26 01:11:35;;;;;;;14.98;8.52;;;205.30;2124.80;;;;;;4806982;29;20042;-68
2021/10/26 01:14:02;;;;;;;11.85;8.13;;;205.30;2124.80;;;;;;4806998;29;20065;-66
2021/10/26 01:16:29;;;;;;;13.10;8.10;;;205.20;2124.80;;;;;;4807099;29;20043;-59
2021/10/26 01:18:55;;;;;;;13.80;8.18;;;205.20;2124.80;;;;;;4807205;29;20042;-59
2021/10/26 01:21:21;;;;;;;15.27;7.97;;;205.30;2150.40;;;;;;4806869;29;20389;-58
2021/10/26 01:23:47;;;;;;;14.18;8.85;;;205.20;2124.80;;;;;;4806901;29;20472;-59
2021/10/26 01:26:13;;;;;;;11.90;7.78;;;205.20;2150.40;;;;;;4806996;29;20027;-58
2021/10/26 01:28:39;;;;;;;16.58;8.60;;;205.20;2124.80;;;;;;4790568;29;20034;-58
2021/10/26 01:31:05;;;;;;;16.65;8.35;;;205.20;2124.80;;;;;;4806851;29;20035;-60
2021/10/26 01:33:31;;;;;;;15.05;8.40;;;205.20;2124.80;;;;;;4806639;29;20027;-69
2021/10/26 01:35:57;;;;;;;12.15;8.13;;;205.10;2124.80;;;;;;4806831;29;20058;-69
2021/10/26 01:38:24;;;;;;;14.57;9.10;;;205.10;2124.80;;;;;;4806916;29;20031;-69
2021/10/26 01:40:50;;;;;;;12.63;8.00;;;205.10;2124.80;;;;;;4806297;29;20035;-59
2021/10/26 01:43:17;;;;;;;13.90;8.02;;;205.10;2124.80;;;;;;4806487;29;20077;-58
2021/10/26 01:45:43;;;;;;;15.80;7.57;;;205.20;2124.80;;;;;;4806667;29;20033;-69
2021/10/26 01:48:09;;;;;;;12.27;8.50;;;205.20;2124.80;;;;;;4806909;29;20023;-69
2021/10/26 01:50:35;;;;;;;15.57;8.60;;;205.10;2124.80;;;;;;4806710;29;20046;-58
2021/10/26 01:53:00;;;;;;;12.15;7.32;;;205.10;2124.80;;;;;;4806158;29;20050;-59
2021/10/26 01:55:27;;;;;;;12.75;8.38;;;205.10;2124.80;;;;;;4806572;29;20031;-58
2021/10/26 01:57:53;;;;;;;15.02;7.55;;;205.10;2124.80;;;;;;4806535;29;20381;-69
2021/10/26 02:00:20;;;;;;;14.98;8.10;;;205.00;2150.40;;;;;;4806406;29;20038;-69
2021/10/26 02:02:47;;;;;;;17.85;8.15;;;205.10;2150.40;;;;;;4806225;29;20105;-64
2021/10/26 02:05:14;;;;;;;12.15;8.38;;;205.00;2150.40;;;;;;4806491;29;20027;-58
2021/10/26 02:07:40;;;;;;;13.13;8.02;;;205.00;2150.40;;;;;;4806195;29;20049;-68
2021/10/26 02:10:07;;;;;;;12.13;7.80;;;205.00;2150.40;;;;;;4806372;29;20035;-59
2021/10/26 02:12:33;;;;;;;15.30;8.65;;;205.00;2150.40;;;;;;4806065;29;20474;-58
2021/10/26 02:14:59;;;;;;;14.50;8.55;;;205.10;2124.80;;;;;;4806036;29;20061;-59
2021/10/26 02:17:24;;;;;;;13.80;8.32;;;205.10;2124.80;;;;;;4806619;29;20434;-65
2021/10/26 02:19:50;;;;;;;16.73;8.20;;;205.00;2124.80;;;;;;4806251;29;20039;-69
2021/10/26 02:22:17;;;;;;;18.08;8.52;;;205.10;2124.80;;;;;;4790175;29;20035;-64
2021/10/26 02:24:44;;;;;;;14.02;7.88;;;205.10;2124.80;;;;;;4806216;29;20031;-68
2021/10/26 02:27:10;;;;;;;13.93;8.27;;;205.10;2124.80;;;;;;4806217;29;20165;-58
2021/10/26 02:29:36;;;;;;;13.77;8.02;;;205.10;2124.80;;;;;;4806182;29;20532;-58
2021/10/26 02:32:03;;;;;;;10.95;7.97;;;205.00;2150.40;;;;;;4806212;29;20019;-58
2021/10/26 02:34:29;;;;;;;14.05;9.05;;;205.00;2124.80;;;;;;4806033;29;20030;-67
2021/10/26 02:36:55;;;;;;;13.77;8.35;;;205.00;2124.80;;;;;;4806141;29;20038;-59
2021/10/26 02:39:21;;;;;;;15.50;8.02;;;205.00;2124.80;;;;;;4805995;29;20039;-69
2021/10/26 02:41:47;;;;;;;13.93;8.30;;;205.00;2150.40;;;;;;4806334;29;20083;-59
2021/10/26 02:44:13;;;;;;;13.75;8.35;;;204.90;2150.40;;;;;;4805918;29;20027;-59
2021/10/26 02:46:39;;;;;;;14.30;8.82;;;204.90;2150.40;;;;;;4806073;29;20035;-68
2021/10/26 02:49:05;;;;;;;14.93;8.60;;;204.90;2150.40;;;;;;4806515;29;20072;-58
2021/10/26 02:51:32;;;;;;;12.20;8.35;;;204.80;2176.00;;;;;;4805907;29;20074;-68
2021/10/26 02:53:57;;;;;;;12.85;8.82;;;204.80;2150.40;;;;;;4809199;29;20035;-68
2021/10/26 02:56:23;;;;;;;14.32;8.30;;;204.80;2176.00;;;;;;4809476;29;20031;-58
2021/10/26 02:58:49;;;;;;;12.13;7.97;;;204.80;2150.40;;;;;;4809332;29;20088;-67
2021/10/26 03:01:16;;;;;;;13.73;7.97;;;204.80;2176.00;;;;;;4809328;29;20046;-58
2021/10/26 03:03:42;;;;;;;14.55;8.40;;;204.80;2150.40;;;;;;4809167;29;20031;-58
2021/10/26 03:06:08;;;;;;;16.85;8.05;;;204.80;2150.40;;;;;;4809390;29;20389;-58
2021/10/26 03:08:33;;;;;;;13.50;8.43;;;204.80;2150.40;;;;;;4809530;29;20034;-58
2021/10/26 03:10:59;;;;;;;16.15;9.07;;;204.80;2150.40;;;;;;4809801;29;20064;-58
2021/10/26 03:13:25;;;;;;;12.73;8.82;;;204.80;2150.40;;;;;;4808868;29;20039;-58
2021/10/26 03:15:51;;;;;;;15.27;8.43;;;204.80;2150.40;;;;;;4809157;29;20477;-59
2021/10/26 03:18:17;;;;;;;17.15;9.63;;;204.80;2150.40;;;;;;4809077;29;20037;-67
2021/10/26 03:20:44;;;;;;;15.73;9.05;;;204.80;2150.40;;;;;;4808993;29;20043;-58
2021/10/26 03:23:10;;;;;;;14.00;9.02;;;204.80;2124.80;;;;;;4808965;29;20088;-59
2021/10/26 03:25:36;;;;;;;20.77;8.48;;;204.90;2150.40;;;;;;4808964;29;20023;-59
2021/10/26 03:28:02;;;;;;;13.18;8.10;;;204.90;2124.80;;;;;;4809102;29;20438;-59
2021/10/26 03:30:28;;;;;;;10.93;7.55;;;204.80;2124.80;;;;;;4808852;29;20071;-59
2021/10/26 03:32:54;;;;;;;12.63;8.07;;;204.80;2124.80;;;;;;4809015;29;20065;-67
2021/10/26 03:35:20;;;;;;;15.27;8.80;;;204.80;2150.40;;;;;;4808622;29;20030;-59
2021/10/26 03:37:46;;;;;;;16.25;9.48;;;180.10;2150.40;;;;;;4809051;29;20042;-58
2021/10/26 03:40:13;;;;;;;13.75;8.75;;;180.10;2150.40;;;;;;4808733;29;20050;-58
2021/10/26 03:42:41;;;;;;;16.65;9.38;;;180.10;2176.00;;;;;;4808740;29;20023;-66
2021/10/26 03:45:08;;;;;;;14.65;8.77;;;180.10;2150.40;;;;;;4808464;29;20031;-58
2021/10/26 03:47:42;;;;;;;14.77;9.98;;;180.10;2150.40;;;;;;4809173;29;20054;-67
2021/10/26 03:50:10;;;;;;;16.60;9.73;;;180.10;2150.40;;;;;;4808590;29;20031;-58
2021/10/26 03:52:36;;;;;;;16.90;10.10;;;180.10;2150.40;;;;;;4808296;29;20532;-58
2021/10/26 03:55:03;;;;;;;15.30;10.77;;;180.10;2150.40;;;;;;4808343;29;20023;-67
2021/10/26 03:57:29;;;;;;;24.65;13.60;;;180.10;2150.40;;;;;;4808436;29;20035;-62
2021/10/26 03:59:54;;;;;;;19.13;11.57;;;180.10;2150.40;;;;;;4808378;29;20047;-68
2021/10/26 04:02:24;;;;;;;23.52;13.20;;;180.10;2150.40;;;;;;4808203;29;20023;-58
2021/10/26 04:04:58;;;;;;;23.10;14.52;;;180.10;2150.40;;;;;;4808348;29;20084;-68
2021/10/26 04:07:25;;;;;;;22.83;13.43;;;180.00;2150.40;;;;;;4808360;29;20034;-67
2021/10/26 04:10:04;;;;;;;20.75;12.55;;;180.00;2150.40;;;;;;4808485;29;20457;-58
2021/10/26 04:12:30;;;;;;;20.48;12.82;;;180.00;2150.40;;;;;;4807108;29;20106;-65
2021/10/26 04:14:57;;;;;;;16.88;11.85;;;179.90;2150.40;;;;;;4806614;29;20101;-66
2021/10/26 04:17:25;;;;;;;21.48;12.85;;;179.90;2176.00;;;;;;4806868;29;20018;-63
2021/10/26 04:19:54;;;;;;;16.98;10.75;;;179.90;2150.40;;;;;;4798442;29;20034;-62
2021/10/26 04:22:21;;;;;;;17.88;10.93;;;179.90;2150.40;;;;;;4806410;29;20075;-60
2021/10/26 04:24:49;;;;;;;16.23;11.52;;;179.90;2150.40;;;;;;4806079;29;20435;-62
2021/10/26 04:27:16;;;;;;;23.10;12.10;;;179.80;2176.00;;;;;;4806630;29;20105;-62
2021/10/26 04:29:42;;;;;;;20.23;12.32;;;179.90;2150.40;;;;;;4806571;29;20050;-69
2021/10/26 04:32:10;;;;;;;17.05;11.02;;;179.90;2176.00;;;;;;4806586;29;20755;-61
2021/10/26 04:34:37;;;;;;;17.88;11.48;;;179.80;2176.00;;;;;;4806365;29;20046;-58
2021/10/26 04:37:09;;;;;;;17.40;10.45;;;179.80;2150.40;;;;;;4806470;29;20026;-68
2021/10/26 04:39:36;;;;;;;14.85;9.60;;;179.80;2150.40;;;;;;4806457;29;20031;-62
2021/10/26 04:42:04;;;;;;;16.73;9.55;;;179.80;2150.40;;;;;;4806728;29;20027;-60
2021/10/26 04:44:30;;;;;;;17.15;10.20;;;179.80;2150.40;;;;;;4807679;29;20061;-60
2021/10/26 04:46:56;;;;;;;18.25;10.88;;;179.80;2176.00;;;;;;4807052;29;20038;-65
2021/10/26 04:49:22;;;;;;;17.63;10.77;;;179.90;2176.00;;;;;;4807565;29;20035;-58
2021/10/26 04:51:48;;;;;;;18.65;10.25;;;179.90;2150.40;;;;;;4806942;29;20125;-61
2021/10/26 04:54:14;;;;;;;17.73;10.75;;;179.90;2150.40;;;;;;4807342;29;20149;-62
2021/10/26 04:56:40;;;;;;;19.02;10.43;;;179.80;2150.40;;;;;;4807025;29;20019;-69
2021/10/26 04:59:05;;;;;;;19.63;11.75;;;179.80;2176.00;;;;;;4807614;29;20373;-57
2021/10/26 05:01:31;;;;;;;73.05;13.70;;;179.80;2176.00;;;;;;4807292;29;20426;-69
2021/10/26 05:03:57;;;;;;;15.63;10.05;;;179.80;2201.60;;;;;;4807368;29;20054;-69
2021/10/26 05:06:23;;;;;;;18.10;10.43;;;179.90;2176.00;;;;;;4805534;29;20027;-58
2021/10/26 05:08:52;;;;;;;17.25;11.30;;;180.00;2150.40;;;;;;4805806;29;20031;-58
2021/10/26 05:11:21;;;;;;;20.25;11.50;;;180.00;2150.40;;;;;;4805812;29;20038;-66
2021/10/26 05:13:48;;;;;;;20.92;11.30;;;179.90;2150.40;;;;;;4806520;29;20058;-69
2021/10/26 05:16:14;;;;;;;19.02;12.32;;;179.80;2176.00;;;;;;4806417;29;20425;-58
2021/10/26 05:18:43;;;;;;;19.67;10.68;;;179.80;2176.00;;;;;;4806383;29;20119;-58
2021/10/26 05:21:14;;;;;;;19.33;11.77;;;179.80;2201.60;;;;;;4806500;29;20031;-68
2021/10/26 05:23:45;;;;;;;22.83;13.77;;;179.80;2176.00;;;;;;4806452;29;20023;-58
2021/10/26 05:26:10;;;;;;;25.58;14.40;;;179.80;2176.00;;;;;;4806199;29;20068;-58
2021/10/26 05:28:37;;;;;;;26.52;14.02;;;179.80;2176.00;;;;;;4806545;29;20023;-57
2021/10/26 05:31:02;;;;;;;30.70;15.45;;;179.80;2176.00;;;;;;4806829;29;20031;-58
2021/10/26 05:33:29;;;;;;;21.15;13.15;;;179.80;2176.00;;;;;;4806872;29;20099;-57
2021/10/26 05:35:55;;;;;;;24.42;13.38;;;179.80;2176.00;;;;;;4790088;29;20043;-68
2021/10/26 05:38:21;;;;;;;27.30;13.55;;;179.80;2176.00;;;;;;4806812;29;20088;-60
2021/10/26 05:40:47;;;;;;;27.90;15.63;;;179.90;2176.00;;;;;;4804822;29;20526;-63
2021/10/26 05:43:13;;;;;;;31.58;17.38;;;179.90;2176.00;;;;;;4806151;29;20473;-59
2021/10/26 05:45:45;;;;;;;32.95;18.33;;;179.90;2176.00;;;;;;4804689;29;20480;-57
2021/10/26 05:48:15;;;;;;;26.23;16.33;;;179.90;2176.00;;;;;;4804247;29;20075;-57
2021/10/26 05:50:41;;;;;;;22.40;13.32;;;179.90;2176.00;;;;;;4805272;29;20034;-58
2021/10/26 05:53:07;;;;;;;59.38;15.93;;;179.90;2176.00;;;;;;4805483;29;20051;-55
2021/10/26 05:55:33;;;;;;;24.80;10.90;;;179.90;2176.00;;;;;;4805824;29;20366;-59
2021/10/26 05:57:58;;;;;;;13.68;10.10;;;180.00;2176.00;;;;;;4806215;29;20042;-57
2021/10/26 06:00:25;;;;;;;15.38;10.20;;;180.00;2176.00;;;;;;4806518;29;20042;-57
2021/10/26 06:02:52;;;;;;;15.95;10.27;;;180.10;2176.00;;;;;;4806256;29;20087;-69
2021/10/26 06:05:18;;;;;;;17.83;11.52;;;180.10;2150.40;;;;;;4804639;29;20531;-60
2021/10/26 06:07:44;;;;;;;15.93;10.57;;;204.80;2150.40;;;;;;4803031;29;20061;-59
2021/10/26 06:10:10;;;;;;;18.92;10.52;;;180.10;2176.00;;;;;;4791225;29;20023;-58
2021/10/26 06:12:42;;;;;;;20.10;10.57;;;180.10;2176.00;;;;;;4806037;29;20030;-72
2021/10/26 06:15:08;;;;;;;17.55;10.77;;;204.80;2150.40;;;;;;4805683;29;20026;-59
2021/10/26 06:17:34;;;;;;;18.48;10.93;;;204.80;2150.40;;;;;;4805830;29;20034;-71
2021/10/26 06:20:00;;;;;;;24.65;11.38;;;204.90;2150.40;;;;;;4805125;29;20400;-59
2021/10/26 06:22:26;;;;;;;18.83;12.00;;;204.90;2150.40;;;;;;4810194;29;20023;-59
2021/10/26 06:24:52;;;;;;;22.58;13.15;;;205.00;2150.40;;;;;;4812575;29;20027;-60
2021/10/26 06:27:18;;;;;;;17.20;11.23;;;205.00;2176.00;;;;;;4814545;29;20023;-58
2021/10/26 06:29:45;;;;;;;19.63;10.85;;;205.10;2150.40;;;;;;4811621;29;20027;-61
2021/10/26 06:32:11;;;;;;;17.25;11.27;;;205.10;2124.80;;;;;;4815377;29;20027;-58
2021/10/26 06:34:36;;;;;;;16.42;9.93;;;205.20;2124.80;;;;;;4813646;29;20089;-70
2021/10/26 06:37:03;;;;;;;22.45;11.73;;;205.30;2150.40;;;;;;4808989;29;20488;-71
2021/10/26 06:39:29;;;;;;;16.42;11.45;;;205.30;2124.80;;;;;;4814494;29;20066;-63
2021/10/26 06:41:54;;;;;;;19.00;12.40;;;205.30;2124.80;;;;;;4818112;29;20066;-68
2021/10/26 06:44:20;;;;;;;22.67;14.30;;;205.50;2124.80;;;;;;4816408;29;20054;-69
2021/10/26 06:46:46;;;;;;;26.40;14.32;;;205.50;2124.80;;;;;;4816972;29;20085;-67
2021/10/26 06:49:12;;;;;;;29.92;15.10;;;205.50;2099.20;;;;;;4816267;29;20491;-66
2021/10/26 06:51:39;;;;;;;20.00;12.60;;;205.60;2124.80;;;;;;4817224;29;20047;-58
2021/10/26 06:54:05;;;;;;;20.33;12.13;;;205.60;2124.80;;;;;;4816769;29;20500;-70
2021/10/26 06:56:30;;;;;;;22.33;11.02;;;205.60;2099.20;;;;;;4817816;29;20074;-59
2021/10/26 06:58:56;;;;;;;23.05;12.15;;;230.40;2073.60;;;;;;4809038;29;20114;-57
2021/10/26 07:01:22;;;;;;;21.23;11.88;;;230.40;2099.20;;;;;;4807036;29;20062;-64
2021/10/26 07:03:48;;;;;;;15.95;11.02;;;230.40;2099.20;;;;;;4806056;29;20106;-58
2021/10/26 07:06:14;;;;;;;16.90;10.65;;;230.50;2073.60;;;;;;4814580;29;20030;-71
2021/10/26 07:08:40;;;;;;;24.23;10.98;;;230.50;2099.20;;;;;;4815784;29;20056;-63
2021/10/26 07:11:06;;;;;;;17.58;10.57;;;230.70;2073.60;;;;;;4813804;29;20110;-70
2021/10/26 07:13:37;;;;;;;18.15;11.02;;;230.70;2048.00;;;;;;4808908;29;20050;-61
2021/10/26 07:16:04;;;;;;;19.80;11.40;;;230.70;2048.00;;;;;;4808772;29;20034;-72
2021/10/26 07:18:29;;;;;;;17.55;10.82;;;230.80;2048.00;;;;;;4792223;29;20034;-60
2021/10/26 07:20:55;;;;;;;22.95;11.00;;;230.80;2022.40;;;;;;4808665;29;20125;-61
2021/10/26 07:23:21;;;;;;;23.15;11.63;;;230.80;2022.40;;;;;;4818065;29;20061;-72
2021/10/26 07:25:47;;;;;;;16.65;9.65;;;230.90;2022.40;;;;;;4815732;29;20480;-68
2021/10/26 07:28:14;;;;;;;14.93;9.15;;;231.00;1996.80;;;;;;4810628;29;20038;-68
2021/10/26 07:30:44;;;;;;;16.42;9.63;;;231.10;1971.20;;;;;;4808654;29;20048;-65
2021/10/26 07:33:21;;;;;;;19.58;8.95;;;231.10;1971.20;;;;;;4808345;29;20107;-64
2021/10/26 07:35:50;;;;;;;17.00;9.45;;;231.20;1971.20;;;;;;4808406;29;20400;-66
2021/10/26 07:38:28;;;;;;;15.85;10.00;;;231.20;1971.20;;;;;;4807040;29;20074;-67
2021/10/26 07:40:58;;;;;;;16.95;10.18;;;231.30;1971.20;;;;;;4808500;29;20080;-65
2021/10/26 07:43:24;;;;;;;21.50;10.38;;;256.00;1971.20;;;;;;4793359;29;20027;-63
2021/10/26 07:45:51;;;;;;;19.98;9.73;;;256.20;1920.00;;;;;;4814061;29;20110;-63
2021/10/26 07:48:17;;;;;;;11.98;8.20;;;256.30;1894.40;;;;;;4815741;29;20026;-62
2021/10/26 07:50:43;;;;;;;19.92;12.88;;;256.50;1894.40;;;;;;4820844;29;20026;-62
2021/10/26 07:53:09;;;;;;;15.68;9.80;;;256.70;1894.40;;;;;;4793557;29;20051;-62
2021/10/26 07:55:36;;;;;;;14.23;9.00;;;256.60;1843.20;;;;;;4808515;29;20533;-62
2021/10/26 07:58:02;;;;;;;12.40;9.45;;;281.70;1843.20;;;;;;4816473;29;20060;-62
2021/10/26 08:00:28;;;;;;;14.48;9.73;;;281.90;1817.60;;;;;;4815565;29;20130;-62
2021/10/26 08:02:54;;;;;;;12.32;8.90;;;282.10;1817.60;;;;;;4811591;29;20102;-62
2021/10/26 08:05:20;;;;;;;11.90;8.05;;;282.40;1766.40;;;;;;4807268;29;20039;-62
2021/10/26 08:07:46;;;;;;;15.20;9.15;;;307.40;1766.40;;;;;;4817038;29;20031;-62
2021/10/26 08:10:12;;;;;;;18.05;9.27;;;307.80;1715.20;;;;;;4818301;29;20041;-63
2021/10/26 08:12:38;;;;;;;14.15;8.57;;;308.10;1664.00;;;;;;4817537;29;20053;-62
2021/10/26 08:15:04;;;;;;;24.58;9.45;;;333.00;1664.00;;;;;;4814765;29;20439;-70
2021/10/26 08:17:30;;;;;;;15.57;10.35;;;333.20;1612.80;;;;;;4818447;29;20484;-61
2021/10/26 08:19:59;;;;;;;18.25;11.10;;;358.40;1587.20;;;;;;4811866;29;20548;-62
2021/10/26 08:22:27;;;;;;;24.52;13.68;;;410.40;1356.80;;;;;;4813347;29;20071;-61
2021/10/26 08:24:58;;;;;;;20.40;11.27;;;487.30;1152.00;;;;;;4808122;29;20053;-62
2021/10/26 08:27:25;;;;;;;22.80;12.85;;;;;;;;;;4807604;29;20038;-63
2021/10/26 08:30:10;;;;;;;17.40;9.13;;;614.40;921.60;;;;;;4807534;29;20092;-64
2021/10/26 08:32:48;;;;;;;14.40;8.98;;;640.20;844.80;;;;;;4810241;29;20038;-62
2021/10/26 08:35:31;;;;;;;18.67;8.50;;;665.70;793.60;;;;;;4812246;29;20082;-63
2021/10/26 08:38:03;;;;;;;14.13;9.05;;;666.40;768.00;;;;;;4807440;29;20041;-61
2021/10/26 08:40:31;;;;;;;27.90;9.80;;;691.70;742.40;;;;;;4807669;29;20042;-63
2021/10/26 08:43:03;;;;;;;21.95;9.18;;;716.90;716.80;;;;;;4807618;29;20035;-70
2021/10/26 08:45:31;;;;;;;14.50;7.55;;;717.40;742.40;;;;;;4807555;29;20110;-65
2021/10/26 08:48:04;;;;;;;14.10;9.35;;;742.40;716.80;;;;;;4807398;29;20023;-69
2021/10/26 08:50:34;;;;;;;11.23;9.13;;;742.90;691.20;;;;;;4806337;29;20038;-68
2021/10/26 08:53:01;;;;;;;17.15;9.25;;;768.10;665.60;;;;;;4806389;29;20076;-70
2021/10/26 08:55:27;;;;;;;13.70;8.38;;;768.00;640.00;;;;;;4807558;29;20058;-62
2021/10/26 08:57:55;;;;;;;15.60;9.55;;;768.30;665.60;;;;;;4806928;29;20038;-62
2021/10/26 09:00:22;;;;;;;16.10;8.40;;;794.30;614.40;;;;;;4806951;29;20035;-70
2021/10/26 09:02:51;;;;;;;17.67;9.38;;;794.10;640.00;;;;;;4806852;29;20117;-63
2021/10/26 09:05:20;;;;;;;15.63;10.23;;;794.40;640.00;;;;;;4806235;29;20501;-72
2021/10/26 09:08:09;;;;;;;24.40;9.20;;;794.40;614.40;;;;;;4807191;29;20034;-69
2021/10/26 09:10:38;;;;;;;31.48;10.23;;;819.60;588.80;;;;;;4806899;29;20060;-68
2021/10/26 09:18:41;;;;;;;16.25;8.88;;;845.10;563.20;;;;;;4807244;29;20401;-69
2021/10/26 09:21:31;;;;;;;18.08;10.45;;;870.50;537.60;;;;;;4806891;29;20092;-70
2021/10/26 09:23:59;;;;;;;20.75;9.18;;;845.30;563.20;;;;;;4806948;29;20106;-70
2021/10/26 09:26:41;;;;;;;12.32;7.65;;;870.40;537.60;;;;;;4806450;29;20470;-64
2021/10/26 09:29:07;;;;;;;16.10;10.23;;;845.60;537.60;;;;;;4790341;29;20027;-69
2021/10/26 09:31:33;;;;;;;18.08;9.40;;;870.60;537.60;;;;;;4806104;29;20080;-69
2021/10/26 09:34:13;;;;;;;14.73;9.35;;;871.10;512.00;;;;;;4806659;29;20023;-68
2021/10/26 09:36:42;;;;;;;16.63;9.20;;;871.00;512.00;;;;;;4806698;29;20118;-63
2021/10/26 09:39:09;;;;;;;26.05;10.52;;;870.90;512.00;;;;;;4806398;29;20469;-68
2021/10/26 09:41:51;;;;;;;20.50;10.75;;;871.20;512.00;;;;;;4806417;29;20030;-69
2021/10/26 09:44:19;;;;;;;15.88;8.63;;;819.70;563.20;;;;;;4806550;29;20113;-65
2021/10/26 09:46:54;;;;;;;12.85;8.02;;;743.10;640.00;;;;;;4806549;29;20031;-66
2021/10/26 09:49:36;;;;;;;15.20;8.20;;;691.40;691.20;;;;;;4806726;29;20061;-63
2021/10/26 09:52:25;;;;;;;18.80;8.55;;;614.80;768.00;;;;;;4806079;29;20050;-63
2021/10/26 09:55:19;;;;;;;12.82;8.15;;;588.80;844.80;;;;;;4806299;29;20111;-65
2021/10/26 09:57:48;;;;;;;23.40;9.07;;;512.90;921.60;;;;;;4813411;29;20034;-64
2021/10/26 10:00:20;;;;;;;16.85;7.95;;;512.00;998.40;;;;;;4817049;29;20140;-71
2021/10/26 10:02:56;;;;;;;19.42;9.73;;;486.80;1024.00;;;;;;4824497;29;20030;-71
2021/10/26 10:05:28;;;;;;;12.38;8.63;;;486.40;1075.20;;;;;;4824377;29;20163;-64
2021/10/26 10:07:54;;;;;;;13.88;7.97;;;461.60;1075.20;;;;;;4814317;29;20023;-62
2021/10/26 10:10:20;;;;;;;15.30;8.85;;;461.40;1100.80;;;;;;4806324;29;20113;-71
2021/10/26 10:13:02;;;;;;;19.25;8.55;;;461.10;1100.80;;;;;;4805814;29;20192;-70
2021/10/26 10:15:28;;;;;;;22.98;8.50;;;486.40;1049.60;;;;;;4806136;29;20035;-69
2021/10/26 10:17:58;;;;;;;11.57;8.20;;;563.30;947.20;;;;;;4805923;29;20111;-71
2021/10/26 10:20:25;;;;;;;13.25;8.38;;;563.30;921.60;;;;;;4805935;29;20373;-70
2021/10/26 10:22:52;;;;;;;12.57;8.68;;;538.00;921.60;;;;;;4806255;29;20524;-70
2021/10/26 10:25:18;;;;;;;14.02;8.30;;;537.80;947.20;;;;;;4806443;29;20462;-73
2021/10/26 10:27:47;;;;;;;9.35;7.32;;;512.00;972.80;;;;;;4805709;29;20023;-63
2021/10/26 10:30:14;;;;;;;17.67;9.00;;;486.70;1049.60;;;;;;4805869;29;20133;-67
2021/10/26 10:32:41;;;;;;;14.88;8.38;;;461.20;1152.00;;;;;;4789329;29;20031;-71
2021/10/26 10:35:15;;;;;;;17.55;9.85;;;436.10;1152.00;;;;;;4815245;29;20530;-65
2021/10/26 10:37:42;;;;;;;13.95;9.02;;;435.40;1203.20;;;;;;4823700;29;20438;-63
2021/10/26 10:40:09;;;;;;;16.70;9.13;;;435.20;1228.80;;;;;;4822201;29;20030;-66
2021/10/26 10:42:48;;;;;;;12.43;8.65;;;410.40;1254.40;;;;;;4821980;29;20038;-69
2021/10/26 10:45:34;;;;;;;69.57;12.27;;;410.30;1280.00;;;;;;4822474;29;20038;-60
2021/10/26 10:48:24;;;;;;;16.75;9.68;;;410.00;1280.00;;;;;;4820022;29;20034;-69
2021/10/26 10:51:12;;;;;;;12.35;7.93;;;409.80;1305.60;;;;;;4799599;29;20122;-63
2021/10/26 10:53:40;;;;;;;13.57;9.10;;;409.70;1280.00;;;;;;4805751;29;20118;-68
2021/10/26 10:56:21;;;;;;;14.75;8.88;;;409.80;1305.60;;;;;;4805688;29;20027;-61
2021/10/26 10:58:50;;;;;;;16.58;10.13;;;409.70;1305.60;;;;;;4805820;29;20046;-71
2021/10/26 11:01:20;;;;;;;11.80;8.77;;;409.70;1305.60;;;;;;4805562;29;20484;-62
2021/10/26 11:03:47;;;;;;;14.40;8.35;;;409.60;1305.60;;;;;;4806009;29;20047;-70
2021/10/26 11:06:36;;;;;;;14.95;8.90;;;;;;;;;;4805724;29;20062;-67
2021/10/26 11:09:02;;;;;;;15.25;8.07;;;409.60;1561.60;;;;;;4794098;29;20047;-67
2021/10/26 11:11:28;;;;;;;15.40;8.13;;;384.70;1280.00;;;;;;4805441;29;20117;-65
2021/10/26 11:14:18;;;;;;;15.82;9.60;;;384.60;1331.20;;;;;;4807638;29;20110;-65
2021/10/26 11:16:45;;;;;;;13.90;8.50;;;384.60;1331.20;;;;;;4808993;29;20049;-72
2021/10/26 11:19:43;;;;;;;12.23;7.95;;;384.50;1331.20;;;;;;4808806;29;20031;-72
2021/10/26 11:22:47;;;;;;;12.50;8.63;;;384.50;1305.60;;;;;;4808398;29;20125;-68
2021/10/26 11:25:32;;;;;;;12.63;7.85;;;384.40;1305.60;;;;;;4808796;29;20523;-63
2021/10/26 11:28:13;;;;;;;13.80;7.68;;;384.50;1280.00;;;;;;4808571;29;20062;-71
2021/10/26 11:30:42;;;;;;;21.13;8.13;;;384.40;1305.60;;;;;;4808797;29;20511;-70
2021/10/26 11:33:14;;;;;;;13.93;9.15;;;384.50;1305.60;;;;;;4808505;29;20488;-67
2021/10/26 11:35:46;;;;;;;77.80;43.63;;;384.40;1331.20;;;;;;4808811;29;20071;-65
2021/10/26 11:38:13;;;;;;;27.15;14.20;;;384.40;1331.20;;;;;;4808575;29;20045;-66
2021/10/26 11:41:29;;;;;;;15.57;9.77;;;384.30;1331.20;;;;;;4807651;29;20035;-64
2021/10/26 11:43:58;;;;;;;19.13;8.52;;;384.40;1331.20;;;;;;4802584;29;20043;-62
2021/10/26 11:46:40;;;;;;;16.95;8.90;;;384.20;1331.20;;;;;;4806929;29;20037;-69
2021/10/26 11:49:07;;;;;;;15.20;9.70;;;384.30;1331.20;;;;;;4807227;29;20542;-67
2021/10/26 11:51:41;;;;;;;18.70;9.20;;;384.30;1356.80;;;;;;4807644;29;20035;-69
2021/10/26 11:54:09;;;;;;;;;;;384.30;1382.40;;;;;;4806812;29;20349;-63
2021/10/26 11:56:38;;;;;;;19.02;10.95;;;384.50;1331.20;;;;;;4806910;29;19909;-67
2021/10/26 11:59:18;;;;;;;16.08;9.85;;;384.60;1331.20;;;;;;4806912;29;20066;-63
2021/10/26 12:01:49;;;;;;;15.10;10.20;;;410.10;1280.00;;;;;;4806953;29;20437;-63
2021/10/26 12:04:16;;;;;;;17.35;9.38;;;410.30;1280.00;;;;;;4806335;29;20045;-69
2021/10/26 12:06:43;;;;;;;19.55;10.02;;;435.30;1254.40;;;;;;4807039;29;20034;-63
2021/10/26 12:09:11;;;;;;;15.90;8.88;;;435.20;1280.00;;;;;;4807297;29;20472;-67
2021/10/26 12:11:38;;;;;;;16.77;9.73;;;435.20;1254.40;;;;;;4807673;29;20054;-62
2021/10/26 12:14:19;;;;;;;15.20;9.20;;;410.30;1254.40;;;;;;4807082;29;20043;-64
2021/10/26 12:17:22;;;;;;;21.05;11.68;;;410.10;1254.40;;;;;;4807789;29;20110;-69
2021/10/26 12:20:06;;;;;;;18.10;11.85;;;409.80;1280.00;;;;;;4806689;29;20031;-69